Time;durP1;ratioP1;P1;durP2;ratioP2;P2;SDS_P1;SDS_P2;PMS_P1;PMS_P2;Temp;Humidity;BMP_temperature;BMP_pressure;BME280_temperature;BME280_humidity;BME280_pressure;Samples;Min_cycle;Max_cycle;Signal;HPM_P1;HPM_P2
2023/09/16 00:02:21;;;;;;;19.60;11.77;;;;;;;-145.18;100.00;46646.72;5079208;28;20040;-58
2023/09/16 00:04:46;;;;;;;16.80;10.97;;;;;;;-145.18;100.00;46642.81;5073304;28;20476;-58
2023/09/16 00:07:13;;;;;;;22.37;12.03;;;;;;;-145.18;100.00;46640.88;5081927;28;20428;-59
2023/09/16 00:09:40;;;;;;;18.93;11.27;;;;;;;-145.18;100.00;46642.81;5072454;28;20025;-58
2023/09/16 00:12:05;;;;;;;23.27;12.17;;;;;;;-145.18;100.00;46642.81;5072961;28;20094;-58
2023/09/16 00:14:31;;;;;;;18.03;12.50;;;;;;;-145.18;100.00;46642.81;5082449;28;20032;-58
2023/09/16 00:17:00;;;;;;;18.50;12.23;;;;;;;-145.18;100.00;46642.81;5083571;28;20046;-58
2023/09/16 00:19:25;;;;;;;18.73;11.67;;;;;;;-145.18;100.00;46640.88;5085060;28;20036;-58
2023/09/16 00:21:51;;;;;;;24.37;12.53;;;;;;;-145.18;100.00;46640.88;5079111;28;20039;-58
2023/09/16 00:24:18;;;;;;;19.67;11.83;;;;;;;-145.18;100.00;46644.78;5080379;28;20048;-58
2023/09/16 00:26:43;;;;;;;19.87;13.33;;;;;;;-145.18;100.00;46640.88;5085230;28;20446;-58
2023/09/16 00:29:09;;;;;;;19.17;12.53;;;;;;;-145.18;100.00;46640.88;5091238;28;20024;-58
2023/09/16 00:31:36;;;;;;;17.00;12.83;;;;;;;-145.18;100.00;46644.78;5093908;28;20035;-58
2023/09/16 00:34:01;;;;;;;20.03;13.17;;;;;;;-145.18;100.00;46677.97;5127070;27;20024;-58
2023/09/16 00:36:28;;;;;;;19.77;13.27;;;;;;;-145.18;100.00;46644.78;5127435;27;20441;-58
2023/09/16 00:38:53;;;;;;;20.37;13.17;;;;;;;-145.18;100.00;46640.88;5087924;28;20048;-58
2023/09/16 00:41:18;;;;;;;21.87;13.17;;;;;;;-145.18;100.00;46677.97;5094736;28;20066;-58
2023/09/16 00:43:44;;;;;;;23.57;13.47;;;;;;;-145.18;100.00;46638.91;5089377;28;20490;-58
2023/09/16 00:46:09;;;;;;;21.43;12.47;;;;;;;-145.18;100.00;46642.81;5092756;28;20032;-58
2023/09/16 00:48:35;;;;;;;19.10;12.63;;;;;;;-145.18;100.00;46638.91;5090809;28;20028;-58
2023/09/16 00:51:01;;;;;;;18.80;12.43;;;;;;;-145.18;100.00;46638.91;5092465;28;20479;-58
2023/09/16 00:53:27;;;;;;;16.13;12.00;;;;;;;-145.18;100.00;46660.41;5090345;28;20065;-59
2023/09/16 00:55:52;;;;;;;17.83;12.30;;;;;;;-145.18;100.00;46638.91;5093978;28;20487;-58
2023/09/16 00:58:18;;;;;;;15.73;11.57;;;;;;;-145.18;100.00;46640.88;5093948;28;20465;-58
2023/09/16 01:00:47;;;;;;;17.70;12.40;;;;;;;-145.18;100.00;46660.41;5088219;28;20020;-59
2023/09/16 01:03:15;;;;;;;16.40;12.17;;;;;;;-145.18;100.00;46677.97;5088046;28;20446;-58
2023/09/16 01:05:40;;;;;;;19.43;13.03;;;;;;;-145.18;100.00;46677.97;5084739;28;20021;-58
2023/09/16 01:08:06;;;;;;;16.03;11.43;;;;;;;-145.18;100.00;46660.41;5082507;28;20032;-58
2023/09/16 01:10:32;;;;;;;16.77;11.70;;;;;;;-145.18;100.00;46660.41;5085425;28;20032;-58
2023/09/16 01:12:58;;;;;;;17.87;11.83;;;;;;;-145.18;100.00;46676.03;5076885;28;20058;-58
2023/09/16 01:15:27;;;;;;;18.10;12.03;;;;;;;-145.18;100.00;46640.88;5076774;28;20032;-58
2023/09/16 01:18:31;;;;;;;19.20;11.73;;;;;;;-145.18;100.00;46644.78;5079830;28;20103;-58
2023/09/16 01:20:58;;;;;;;22.80;11.90;;;;;;;-145.18;100.00;46646.72;5071813;28;20032;-58
2023/09/16 01:23:23;;;;;;;16.13;11.57;;;;;;;-145.18;100.00;46642.81;5071827;28;20063;-58
2023/09/16 01:25:49;;;;;;;18.60;11.63;;;;;;;-145.18;100.00;46677.97;5081796;28;20086;-58
2023/09/16 01:28:14;;;;;;;14.77;11.13;;;;;;;-145.18;100.00;46642.81;5086074;28;20497;-59
2023/09/16 01:30:46;;;;;;;17.57;11.43;;;;;;;-145.18;100.00;46638.91;5097664;28;20077;-58
2023/09/16 01:33:24;;;;;;;18.43;12.13;;;;;;;-145.18;100.00;46638.91;5089795;28;20400;-59
2023/09/16 01:35:59;;;;;;;15.37;11.83;;;;;;;-145.18;100.00;46644.78;5089186;28;20077;-58
2023/09/16 01:38:27;;;;;;;21.05;11.68;;;;;;;-145.18;100.00;46644.78;5086580;28;20572;-58
2023/09/16 01:40:55;;;;;;;20.77;12.13;;;;;;;-145.18;100.00;46638.91;5091573;28;20061;-58
2023/09/16 01:43:20;;;;;;;16.83;11.57;;;;;;;-145.18;100.00;46638.91;5091344;28;20032;-58
2023/09/16 01:45:46;;;;;;;17.20;11.83;;;;;;;-145.18;100.00;46642.81;5090090;28;20055;-58
2023/09/16 01:48:11;;;;;;;22.13;12.30;;;;;;;-145.18;100.00;46640.88;5090689;28;20049;-59
2023/09/16 01:50:37;;;;;;;17.43;11.20;;;;;;;-145.18;100.00;46640.88;5091383;28;20020;-59
2023/09/16 01:53:06;;;;;;;17.93;12.30;;;;;;;-145.18;100.00;46642.81;5079216;28;20466;-59
2023/09/16 01:55:32;;;;;;;14.80;11.97;;;;;;;-145.18;100.00;46642.81;5092798;28;20449;-58
2023/09/16 01:57:58;;;;;;;19.60;12.60;;;;;;;-145.18;100.00;46644.78;5092052;28;20115;-59
2023/09/16 02:00:23;;;;;;;16.13;12.20;;;;;;;-145.18;100.00;46638.91;5091966;28;20070;-59
2023/09/16 02:02:48;;;;;;;17.90;13.07;;;;;;;-145.18;100.00;46660.41;5077049;28;20025;-58
2023/09/16 02:05:14;;;;;;;22.40;12.67;;;;;;;-145.18;100.00;46676.03;5081278;28;20056;-58
2023/09/16 02:07:40;;;;;;;17.13;12.87;;;;;;;-145.18;100.00;46676.03;5091507;28;20032;-58
2023/09/16 02:10:06;;;;;;;18.93;12.60;;;;;;;-145.18;100.00;46638.91;5090040;28;20107;-58
2023/09/16 02:12:33;;;;;;;21.47;12.63;;;;;;;-145.18;100.00;46677.97;5089454;28;20060;-58
2023/09/16 02:14:58;;;;;;;15.57;12.07;;;;;;;-145.18;100.00;46660.41;5085674;28;20035;-58
2023/09/16 02:17:25;;;;;;;19.30;12.77;;;;;;;-145.18;100.00;46660.41;5089823;28;20028;-58
2023/09/16 02:19:51;;;;;;;20.90;12.87;;;;;;;-145.18;100.00;46677.97;5088183;28;20404;-59
2023/09/16 02:22:17;;;;;;;17.20;12.83;;;;;;;-145.18;100.00;46677.97;5089015;28;20547;-59
2023/09/16 02:24:42;;;;;;;22.37;11.77;;;;;;;-145.18;100.00;46660.41;5086116;28;20116;-58
2023/09/16 02:27:08;;;;;;;16.73;12.40;;;;;;;-145.18;100.00;46642.81;5089619;28;20035;-58
2023/09/16 02:29:34;;;;;;;18.17;11.10;;;;;;;-145.18;100.00;46676.03;5085960;28;20094;-58
2023/09/16 02:31:59;;;;;;;19.33;11.97;;;;;;;-145.18;100.00;46638.91;5087346;28;20077;-58
2023/09/16 02:34:25;;;;;;;20.87;12.07;;;;;;;-145.18;100.00;46640.88;5081402;28;20136;-58
2023/09/16 02:36:50;;;;;;;16.13;12.13;;;;;;;-145.18;100.00;46640.88;5087096;28;20438;-58
2023/09/16 02:39:15;;;;;;;17.77;11.17;;;;;;;-145.18;100.00;46640.88;5081136;28;20112;-58
2023/09/16 02:41:41;;;;;;;17.80;11.63;;;;;;;-145.18;100.00;46676.03;5084971;28;20043;-59
2023/09/16 02:44:07;;;;;;;15.90;12.23;;;;;;;-145.18;100.00;46642.81;5079305;28;20028;-65
2023/09/16 02:46:32;;;;;;;19.70;13.37;;;;;;;-145.18;100.00;46638.91;5082655;28;20016;-65
2023/09/16 02:48:58;;;;;;;19.23;13.33;;;;;;;-145.18;100.00;46660.41;5086769;28;20434;-66
2023/09/16 02:51:23;;;;;;;19.80;13.50;;;;;;;-145.18;100.00;46676.03;5076271;28;20027;-66
2023/09/16 02:53:49;;;;;;;17.27;13.00;;;;;;;-145.18;100.00;46676.03;5080165;28;20490;-65
2023/09/16 02:56:14;;;;;;;20.63;14.23;;;;;;;-145.18;100.00;46660.41;5080676;28;20518;-66
2023/09/16 02:58:39;;;;;;;19.30;13.30;;;;;;;-145.18;100.00;46660.41;5078857;28;20077;-65
2023/09/16 03:01:11;;;;;;;20.03;13.43;;;;;;;-145.18;100.00;46660.41;5082344;28;20043;-65
2023/09/16 03:03:37;;;;;;;18.73;12.90;;;;;;;-145.18;100.00;46638.91;5079281;28;20021;-65
2023/09/16 03:06:03;;;;;;;21.23;13.23;;;;;;;-145.18;100.00;46677.97;5082237;28;20196;-65
2023/09/16 03:08:29;;;;;;;20.40;14.57;;;;;;;-145.18;100.00;46638.91;5076446;28;20536;-65
2023/09/16 03:11:02;;;;;;;20.90;12.83;;;;;;;-145.18;100.00;46660.41;5089332;28;20123;-65
2023/09/16 03:13:28;;;;;;;23.00;13.63;;;;;;;-145.18;100.00;46660.41;5076441;28;20020;-65
2023/09/16 03:16:16;;;;;;;18.97;13.50;;;;;;;-145.18;100.00;46660.41;5080497;28;20494;-65
2023/09/16 03:18:46;;;;;;;15.50;11.70;;;;;;;-145.18;100.00;46660.41;5077446;28;20051;-65
2023/09/16 03:21:12;;;;;;;18.20;12.57;;;;;;;-145.18;100.00;46636.94;5076266;28;20024;-65
2023/09/16 03:23:37;;;;;;;20.03;12.67;;;;;;;-145.18;100.00;46660.41;5073834;28;20031;-65
2023/09/16 03:26:03;;;;;;;18.30;12.53;;;;;;;-145.18;100.00;46660.41;5091668;28;20383;-65
2023/09/16 03:28:29;;;;;;;21.20;15.40;;;;;;;-145.18;100.00;46660.41;5091450;28;20044;-65
2023/09/16 03:30:54;;;;;;;20.30;14.30;;;;;;;-145.18;100.00;46660.41;5074584;28;20033;-65
2023/09/16 03:33:19;;;;;;;22.43;14.13;;;;;;;-145.18;100.00;46660.41;5074588;28;20380;-65
2023/09/16 03:35:45;;;;;;;22.43;15.53;;;;;;;-145.18;100.00;46660.41;5078651;28;20039;-66
2023/09/16 03:38:10;;;;;;;29.00;18.07;;;;;;;-145.18;100.00;46660.41;5087013;28;20037;-65
2023/09/16 03:40:36;;;;;;;22.33;16.87;;;;;;;-145.18;100.00;46660.41;5084333;28;20089;-66
2023/09/16 03:43:01;;;;;;;23.47;14.30;;;;;;;-145.18;100.00;46660.41;5087024;28;20115;-65
2023/09/16 03:45:27;;;;;;;21.80;16.33;;;;;;;-145.18;100.00;46660.41;5086289;28;20111;-65
2023/09/16 03:47:52;;;;;;;23.93;15.30;;;;;;;-145.18;100.00;46660.41;5091787;28;20365;-66
2023/09/16 03:50:18;;;;;;;21.40;14.90;;;;;;;-145.18;100.00;46660.41;5086722;28;20028;-65
2023/09/16 03:52:44;;;;;;;19.03;13.87;;;;;;;-145.18;100.00;46660.41;5078095;28;20026;-66
2023/09/16 03:55:09;;;;;;;17.80;12.50;;;;;;;-145.18;100.00;46660.41;5085194;28;20569;-65
2023/09/16 03:57:34;;;;;;;16.07;12.50;;;;;;;-145.18;100.00;46660.41;5087726;28;20024;-66
2023/09/16 04:00:06;;;;;;;18.00;12.67;;;;;;;-145.18;100.00;46660.41;5088999;28;20055;-66
2023/09/16 04:02:31;;;;;;;17.47;13.03;;;;;;;-145.18;100.00;46660.41;5080292;28;20090;-66
2023/09/16 04:04:57;;;;;;;20.37;13.40;;;;;;;-145.18;100.00;46660.41;5088444;28;20480;-66
2023/09/16 04:07:22;;;;;;;18.07;13.60;;;;;;;-145.18;100.00;46660.41;5080354;28;20078;-65
2023/09/16 04:09:48;;;;;;;15.43;12.47;;;;;;;-145.18;100.00;46660.41;5089314;28;20399;-66
2023/09/16 04:12:14;;;;;;;16.20;12.93;;;;;;;-145.18;100.00;46660.41;5076113;28;20546;-66
2023/09/16 04:14:39;;;;;;;16.33;12.60;;;;;;;-145.18;100.00;46660.41;5075437;28;20128;-66
2023/09/16 04:17:05;;;;;;;16.10;12.17;;;;;;;-145.18;100.00;46660.41;5076940;28;20476;-66
2023/09/16 04:19:30;;;;;;;17.87;11.67;;;;;;;-145.18;100.00;46660.41;5074251;28;20048;-65
2023/09/16 04:21:56;;;;;;;16.93;12.77;;;;;;;-145.18;100.00;46660.41;5083326;28;20059;-65
2023/09/16 04:24:21;;;;;;;16.37;12.30;;;;;;;-145.18;100.00;46636.94;5089364;28;20039;-65
2023/09/16 04:26:46;;;;;;;16.87;13.00;;;;;;;-145.18;100.00;46660.41;5087962;28;20072;-65
2023/09/16 04:29:12;;;;;;;22.20;15.33;;;;;;;-145.18;100.00;46660.41;5088962;28;20062;-65
2023/09/16 04:31:37;;;;;;;20.93;15.87;;;;;;;-145.18;100.00;46660.41;5085670;28;20494;-65
2023/09/16 04:34:04;;;;;;;20.70;13.87;;;;;;;-145.18;100.00;46660.41;5088809;28;20040;-66
2023/09/16 04:36:29;;;;;;;18.20;13.67;;;;;;;-145.18;100.00;46660.41;5093445;28;20024;-66
2023/09/16 04:38:55;;;;;;;18.30;14.47;;;;;;;-145.18;100.00;46660.41;5091428;28;20529;-66
2023/09/16 04:41:21;;;;;;;18.70;13.57;;;;;;;-145.18;100.00;46660.41;5089863;28;20062;-66
2023/09/16 04:43:49;;;;;;;20.97;14.23;;;;;;;-145.18;100.00;46660.41;5086592;28;20474;-66
2023/09/16 04:46:18;;;;;;;25.20;15.00;;;;;;;-145.18;100.00;46660.41;5081967;28;20024;-66
2023/09/16 04:48:44;;;;;;;21.83;15.97;;;;;;;-145.18;100.00;46660.41;5080306;28;20070;-66
2023/09/16 04:51:10;;;;;;;20.70;14.83;;;;;;;-145.18;100.00;46660.41;5085357;28;20040;-66
2023/09/16 04:53:35;;;;;;;20.63;15.10;;;;;;;-145.18;100.00;46660.41;5091429;28;20119;-66
2023/09/16 04:56:01;;;;;;;21.73;15.23;;;;;;;-145.18;100.00;46660.41;5079318;28;20036;-66
2023/09/16 04:58:27;;;;;;;27.07;16.73;;;;;;;-145.18;100.00;46660.41;5086471;28;20391;-66
2023/09/16 05:00:52;;;;;;;22.53;15.57;;;;;;;-145.18;100.00;46660.41;5089242;28;20031;-66
2023/09/16 05:03:20;;;;;;;24.30;15.00;;;;;;;-145.18;100.00;46660.41;5091652;28;20028;-59
2023/09/16 05:05:46;;;;;;;21.57;15.17;;;;;;;-145.18;100.00;46660.41;5088214;28;20039;-59
2023/09/16 05:08:11;;;;;;;30.10;14.10;;;;;;;-145.18;100.00;46660.41;5086506;28;20036;-58
2023/09/16 05:10:37;;;;;;;20.57;13.77;;;;;;;-145.18;100.00;46660.41;5091234;28;20036;-58
2023/09/16 05:13:03;;;;;;;20.47;14.20;;;;;;;-145.18;100.00;46660.41;5092095;28;20403;-59
2023/09/16 05:15:28;;;;;;;21.93;15.20;;;;;;;-145.18;100.00;46660.41;5087806;28;20066;-58
2023/09/16 05:17:54;;;;;;;21.90;14.53;;;;;;;-145.18;100.00;46660.41;5085296;28;20043;-59
2023/09/16 05:20:19;;;;;;;23.53;16.43;;;;;;;-145.18;100.00;46660.41;5084965;28;20040;-59
2023/09/16 05:22:49;;;;;;;18.43;12.20;;;;;;;-145.18;100.00;46660.41;5088368;28;20035;-59
2023/09/16 05:25:15;;;;;;;13.77;10.60;;;;;;;-145.18;100.00;46660.41;5086866;28;20028;-59
2023/09/16 05:27:40;;;;;;;12.87;10.10;;;;;;;-145.18;100.00;46635.00;5089527;28;20043;-59
2023/09/16 05:30:06;;;;;;;15.67;11.43;;;;;;;-145.18;100.00;46660.41;5088254;28;20032;-59
2023/09/16 05:32:31;;;;;;;17.50;11.70;;;;;;;-145.18;100.00;46636.94;5089854;28;20560;-59
2023/09/16 05:34:57;;;;;;;12.17;9.67;;;;;;;-145.18;100.00;46660.41;5089768;28;20032;-58
2023/09/16 05:37:22;;;;;;;17.83;12.27;;;;;;;-145.18;100.00;46660.41;5102415;28;20047;-59
2023/09/16 05:39:48;;;;;;;21.07;13.20;;;;;;;-145.18;100.00;46635.00;5089869;28;20029;-59
2023/09/16 05:42:13;;;;;;;16.40;12.97;;;;;;;-145.18;100.00;46660.41;5084885;28;20054;-59
2023/09/16 05:44:39;;;;;;;15.47;11.63;;;;;;;-145.18;100.00;46660.41;5080929;28;20115;-59
2023/09/16 05:47:05;;;;;;;17.80;12.70;;;;;;;-145.18;100.00;46660.41;5083668;28;20036;-58
2023/09/16 05:49:30;;;;;;;14.80;10.80;;;;;;;-145.18;100.00;46660.41;5079883;28;20107;-59
2023/09/16 05:51:56;;;;;;;13.43;9.30;;;;;;;-145.18;100.00;46660.41;5099162;28;20036;-59
2023/09/16 05:54:21;;;;;;;13.57;10.53;;;;;;;-145.18;100.00;46633.06;5090172;28;20062;-59
2023/09/16 05:56:46;;;;;;;16.20;11.50;;;;;;;-145.18;100.00;46660.41;5091522;28;20036;-58
2023/09/16 05:59:15;;;;;;;19.53;12.20;;;;;;;-145.18;100.00;46660.41;5088957;28;20032;-59
2023/09/16 06:01:41;;;;;;;20.20;12.87;;;;;;;-145.18;100.00;46633.06;5092182;28;20039;-59
2023/09/16 06:04:08;;;;;;;14.77;11.70;;;;;;;-145.18;100.00;46660.41;5090112;28;20032;-59
2023/09/16 06:06:33;;;;;;;19.27;12.17;;;;;;;-145.18;100.00;46660.41;5093437;28;20058;-59
2023/09/16 06:08:59;;;;;;;18.97;12.60;;;;;;;-145.18;100.00;46660.41;5084824;28;20044;-59
2023/09/16 06:11:28;;;;;;;16.63;12.33;;;;;;;-145.18;100.00;46633.06;5085531;28;20035;-59
2023/09/16 06:13:54;;;;;;;20.73;12.80;;;;;;;-145.18;100.00;46631.09;5091529;28;20063;-66
2023/09/16 06:16:20;;;;;;;20.93;13.07;;;;;;;-145.18;100.00;46633.06;5078388;28;20065;-66
2023/09/16 06:18:45;;;;;;;16.67;13.27;;;;;;;-145.18;100.00;46631.09;5083318;28;20514;-66
2023/09/16 06:21:11;;;;;;;20.03;13.97;;;;;;;-145.18;100.00;46631.09;5085125;28;20483;-66
2023/09/16 06:23:36;;;;;;;19.53;13.67;;;;;;;-145.18;100.00;46627.19;5085998;28;20036;-66
2023/09/16 06:26:02;;;;;;;21.07;14.67;;;;;;;-145.18;100.00;46660.41;5086483;28;20032;-67
2023/09/16 06:28:27;;;;;;;24.10;15.90;;;;;;;-145.18;100.00;46627.19;5090643;28;20040;-66
2023/09/16 06:30:54;;;;;;;27.40;17.27;;;;;;;-145.18;100.00;46625.22;5085019;28;20114;-66
2023/09/16 06:33:19;;;;;;;27.73;17.30;;;;;;;-145.18;100.00;46658.44;5087535;28;20372;-67
2023/09/16 06:35:44;;;;;;;32.30;19.90;;;;;;;-145.18;100.00;46621.31;5080278;28;20040;-67
2023/09/16 06:38:10;;;;;;;26.57;17.83;;;;;;;-145.18;100.00;46627.19;5097774;28;20470;-67
2023/09/16 06:40:36;;;;;;;26.67;18.90;;;;;;;-145.18;100.00;46621.31;5072822;28;20444;-66
2023/09/16 06:43:02;;;;;;;27.63;18.63;;;;;;;-145.18;100.00;46621.31;5077878;28;20402;-66
2023/09/16 06:45:27;;;;;;;26.03;17.73;;;;;;;-145.18;100.00;46619.38;5075721;28;20033;-66
2023/09/16 06:47:55;;;;;;;28.40;19.77;;;;;;;-145.18;100.00;46656.50;5086052;28;20494;-67
2023/09/16 06:50:21;;;;;;;27.20;19.20;;;;;;;-145.18;100.00;46652.59;5080690;28;20063;-67
2023/09/16 06:52:46;;;;;;;27.37;19.17;;;;;;;-145.18;100.00;46652.59;5098410;28;20066;-67
2023/09/16 06:55:11;;;;;;;27.27;19.30;;;;;;;-145.18;100.00;46652.59;5089601;28;20028;-67
2023/09/16 06:57:37;;;;;;;28.23;20.00;;;;;;;-145.18;100.00;46652.59;5088351;28;20028;-67
2023/09/16 07:00:02;;;;;;;30.57;19.43;;;;;;;-145.18;100.00;46640.88;5077216;28;20036;-67
2023/09/16 07:02:28;;;;;;;31.07;19.50;;;;;;;-145.18;100.00;46640.88;5085019;28;20119;-67
2023/09/16 07:04:55;;;;;;;29.80;19.77;;;;;;;-145.18;100.00;46613.50;5080877;28;20106;-67
2023/09/16 07:07:23;;;;;;;27.47;19.33;;;;;;;-145.18;100.00;46607.66;5088614;28;20398;-67
2023/09/16 07:09:49;;;;;;;29.20;20.43;;;;;;;-145.18;100.00;46611.56;5085460;28;20107;-67
2023/09/16 07:12:15;;;;;;;26.33;19.17;;;;;;;-145.18;100.00;46611.56;5089854;28;20048;-67
2023/09/16 07:14:40;;;;;;;30.27;20.33;;;;;;;-145.18;100.00;46613.50;5070456;28;20561;-67
2023/09/16 07:17:06;;;;;;;25.17;17.87;;;;;;;-145.18;100.00;46609.59;5089802;28;20536;-67
2023/09/16 07:19:33;;;;;;;28.43;19.13;;;;;;;-145.18;100.00;46611.56;5086217;28;20441;-67
2023/09/16 07:21:59;;;;;;;23.70;18.37;;;;;;;-145.18;100.00;46613.50;5089092;28;20028;-59
2023/09/16 07:24:24;;;;;;;24.87;18.70;;;;;;;-145.18;100.00;46613.50;5085561;28;20495;-59
2023/09/16 07:26:50;;;;;;;23.97;18.53;;;;;;;-145.18;100.00;46615.47;5091075;28;20036;-59
2023/09/16 07:29:18;;;;;;;24.57;17.37;;;;;;;-145.18;100.00;46617.41;5085926;28;20568;-59
2023/09/16 07:31:43;;;;;;;24.67;17.80;;;;;;;-145.18;100.00;46617.41;5090903;28;20099;-59
2023/09/16 07:34:09;;;;;;;24.53;16.80;;;;;;;-145.18;100.00;46619.38;5086517;28;20127;-59
2023/09/16 07:36:34;;;;;;;23.30;17.57;;;;;;;-145.18;100.00;46621.31;5088551;28;20487;-59
2023/09/16 07:38:59;;;;;;;25.43;17.97;;;;;;;-145.18;100.00;46621.31;5088487;28;20056;-59
2023/09/16 07:41:25;;;;;;;22.33;17.70;;;;;;;-145.18;100.00;46619.38;5113952;27;20035;-59
2023/09/16 07:43:50;;;;;;;23.63;16.70;;;;;;;-145.18;100.00;46621.31;5087177;28;20118;-60
2023/09/16 07:46:16;;;;;;;20.47;15.33;;;;;;;-145.18;100.00;46625.22;5080414;28;20372;-59
2023/09/16 07:48:41;;;;;;;23.27;15.67;;;;;;;-145.18;100.00;46629.13;5066600;28;20132;-59
2023/09/16 07:51:06;;;;;;;18.87;14.80;;;;;;;-145.18;100.00;46629.13;5071455;28;20041;-59
2023/09/16 07:53:32;;;;;;;21.97;15.50;;;;;;;-145.18;100.00;46631.09;5085536;28;20055;-59
2023/09/16 07:55:57;;;;;;;19.10;14.73;;;;;;;-145.18;100.00;46631.09;5087562;28;20488;-59
2023/09/16 07:58:22;;;;;;;23.57;14.53;;;;;;;-145.18;100.00;46635.00;5084037;28;20024;-59
2023/09/16 08:00:48;;;;;;;20.20;14.00;;;;;;;-145.18;100.00;46640.88;5081674;28;20071;-59
2023/09/16 08:03:14;;;;;;;18.53;14.20;;;;;;;-145.18;100.00;46636.94;5086277;28;20468;-59
2023/09/16 08:05:39;;;;;;;17.73;12.70;;;;;;;-145.18;100.00;46640.88;5085410;28;20039;-59
2023/09/16 08:08:05;;;;;;;19.97;13.67;;;;;;;-145.18;100.00;46642.81;5082021;28;20037;-59
2023/09/16 08:10:30;;;;;;;20.63;14.97;;;;;;;-145.18;100.00;46640.88;5085249;28;20032;-59
2023/09/16 08:12:55;;;;;;;17.70;13.83;;;;;;;-145.18;100.00;46648.69;5084058;28;20031;-59
2023/09/16 08:15:21;;;;;;;17.67;13.80;;;;;;;-145.18;100.00;46648.69;5076487;28;20073;-59
2023/09/16 08:17:46;;;;;;;19.27;14.30;;;;;;;-145.18;100.00;46648.69;5084832;28;20107;-59
2023/09/16 08:20:12;;;;;;;20.03;15.40;;;;;;;-145.18;100.00;46652.59;5087509;28;20384;-59
2023/09/16 08:22:38;;;;;;;24.60;15.23;;;;;;;-145.18;100.00;46656.50;5087303;28;20068;-58
2023/09/16 08:25:03;;;;;;;19.63;14.67;;;;;;;-145.18;100.00;46654.53;5087677;28;20040;-59
2023/09/16 08:27:29;;;;;;;19.37;13.93;;;;;;;-145.18;100.00;46656.50;5082237;28;20030;-60
2023/09/16 08:29:54;;;;;;;18.67;13.97;;;;;;;-145.18;100.00;46664.31;5084973;28;20040;-59
2023/09/16 08:32:28;;;;;;;17.40;12.97;;;;;;;-145.18;100.00;46664.31;5087942;28;20064;-67
2023/09/16 08:34:54;;;;;;;16.50;13.60;;;;;;;-145.18;100.00;46662.34;5083744;28;20028;-67
2023/09/16 08:37:19;;;;;;;19.53;13.53;;;;;;;-145.18;100.00;46662.34;5085615;28;20596;-68
2023/09/16 08:39:44;;;;;;;16.57;12.93;;;;;;;-145.18;100.00;46666.25;5089434;28;20048;-67
2023/09/16 08:42:13;;;;;;;19.73;12.57;;;;;;;-145.18;100.00;46672.13;5093098;28;20389;-68
2023/09/16 08:44:43;;;;;;;16.27;11.57;;;;;;;-145.18;100.00;46664.31;5087351;28;20039;-68
2023/09/16 08:47:25;;;;;;;15.13;11.27;;;;;;;-145.18;100.00;46664.31;5090889;28;20063;-67
2023/09/16 08:49:52;;;;;;;17.20;11.43;;;;;;;-145.18;100.00;46652.59;5092247;28;20107;-67
2023/09/16 08:52:20;;;;;;;12.67;9.70;;;;;;;-145.18;100.00;46640.88;5091206;28;20028;-68
2023/09/16 08:54:47;;;;;;;13.87;10.67;;;;;;;-145.18;100.00;46633.06;5093230;28;20050;-68
2023/09/16 08:57:14;;;;;;;15.13;10.43;;;;;;;-145.18;100.00;46633.06;5089272;28;20023;-68
2023/09/16 08:59:40;;;;;;;15.37;11.23;;;;;;;-145.18;100.00;46642.81;5088341;28;20123;-67
2023/09/16 09:02:08;;;;;;;13.57;10.70;;;;;;;-145.18;100.00;46642.81;5090411;28;20085;-68
2023/09/16 09:04:34;;;;;;;14.80;10.47;;;;;;;-145.18;100.00;46646.72;5091011;28;20111;-68
2023/09/16 09:07:00;;;;;;;14.93;11.57;;;;;;;-145.18;100.00;46656.50;5087891;28;20064;-68
2023/09/16 09:09:26;;;;;;;17.03;12.10;;;;;;;-145.18;100.00;46633.06;5083596;28;20085;-68
2023/09/16 09:11:53;;;;;;;15.77;10.47;;;;;;;-145.18;100.00;46592.03;5087082;28;20162;-68
2023/09/16 09:14:20;;;;;;;14.37;10.20;;;;;;;-145.18;100.00;46549.06;5072812;28;20541;-68
2023/09/16 09:16:46;;;;;;;13.97;8.57;;;;;;;-145.18;100.00;46537.34;5090312;28;20020;-68
2023/09/16 09:19:13;;;;;;;13.27;9.30;;;;;;;-145.18;100.00;46531.47;5087587;28;20031;-68
2023/09/16 09:21:39;;;;;;;14.93;9.03;;;;;;;-145.18;100.00;46543.19;5091203;28;20031;-68
2023/09/16 09:24:05;;;;;;;12.60;9.53;;;;;;;-145.18;100.00;46537.34;5086760;28;20059;-68
2023/09/16 09:26:30;;;;;;;12.93;9.10;;;;;;;-145.18;100.00;46533.44;5088297;28;20101;-68
2023/09/16 09:28:58;;;;;;;13.73;9.40;;;;;;;-145.18;100.00;46533.44;5087111;28;20136;-68
2023/09/16 09:31:23;;;;;;;11.93;8.63;;;;;;;-145.18;100.00;46537.34;5086878;28;20047;-68
2023/09/16 09:33:49;;;;;;;10.50;8.00;;;;;;;-145.18;100.00;46529.53;5090384;28;20032;-68
2023/09/16 09:36:16;;;;;;;12.27;8.57;;;;;;;-145.18;100.00;46543.19;5087965;28;20052;-68
2023/09/16 09:38:43;;;;;;;12.43;8.67;;;;;;;-145.18;100.00;46529.53;5114822;27;20388;-68
2023/09/16 09:41:09;;;;;;;12.17;8.83;;;;;;;-145.18;100.00;46523.66;5088258;28;20100;-68
2023/09/16 09:43:35;;;;;;;16.07;9.87;;;;;;;-145.18;100.00;46517.81;5087652;28;20147;-59
2023/09/16 09:46:00;;;;;;;11.63;8.23;;;;;;;-145.18;100.00;46527.56;5088180;28;20142;-60
2023/09/16 09:48:26;;;;;;;14.83;8.43;;;;;;;-145.18;100.00;46531.47;5090510;28;20097;-60
2023/09/16 09:50:51;;;;;;;10.25;7.53;;;;;;;-145.18;100.00;46523.66;5082048;28;20028;-60
2023/09/16 09:53:17;;;;;;;8.10;5.93;;;;;;;-145.18;100.00;46539.28;5116211;27;20036;-60
2023/09/16 09:55:43;;;;;;;7.90;6.10;;;;;;;-145.18;100.00;46527.56;5090005;28;20035;-60
2023/09/16 09:58:09;;;;;;;8.70;5.50;;;;;;;-145.18;100.00;46508.03;5085995;28;20086;-61
2023/09/16 10:00:35;;;;;;;10.60;7.28;;;;;;;-145.18;100.00;46687.75;5090468;28;20070;-60
2023/09/16 10:03:00;;;;;;;7.90;5.72;;;;;;;-145.18;100.00;47031.53;5087096;28;20048;-60
2023/09/16 10:05:26;;;;;;;8.07;4.82;;;;;;;-145.18;100.00;47070.63;5082703;28;20039;-60
2023/09/16 10:07:53;;;;;;;9.25;5.43;;;;;;;-145.18;100.00;47060.84;5088476;28;20028;-60
2023/09/16 10:10:23;;;;;;;6.05;4.10;;;;;;;-145.18;100.00;47033.50;5105163;28;20030;-60
2023/09/16 10:12:56;;;;;;;8.80;4.18;;;;;;;-145.18;100.00;47027.63;5089804;28;20032;-60
2023/09/16 10:15:25;;;;;;;9.10;4.47;;;;;;;-145.18;100.00;47043.28;5093295;28;20028;-61
2023/09/16 10:17:51;;;;;;;9.57;4.22;;;;;;;-145.18;100.00;47012.00;5091143;28;20379;-61
2023/09/16 10:20:17;;;;;;;7.60;4.35;;;;;;;-145.18;100.00;47017.88;5101574;28;20081;-60
2023/09/16 10:22:44;;;;;;;6.63;3.97;;;;;;;-145.18;100.00;46998.34;5089642;28;20031;-61
2023/09/16 10:25:11;;;;;;;9.30;4.63;;;;;;;-145.18;100.00;47015.91;5089804;28;20761;-61
2023/09/16 10:27:42;;;;;;;5.72;3.88;;;;;;;-145.18;100.00;47019.81;5091892;28;20436;-60
2023/09/16 10:30:08;;;;;;;7.72;4.60;;;;;;;-145.18;100.00;47008.09;5089267;28;20028;-60
2023/09/16 10:32:34;;;;;;;6.72;3.80;;;;;;;-145.18;100.00;47021.78;5092115;28;20028;-60
2023/09/16 10:35:03;;;;;;;10.85;5.32;;;;;;;-145.18;100.00;46988.56;5097492;28;20032;-60
2023/09/16 10:37:29;;;;;;;9.85;4.32;;;;;;;-145.18;100.00;46986.63;5091558;28;20054;-60
2023/09/16 10:39:55;;;;;;;10.23;4.55;;;;;;;-145.18;100.00;46976.84;5087615;28;20495;-60
2023/09/16 10:42:25;;;;;;;6.22;4.68;;;;;;;-145.18;100.00;46980.75;5084028;28;20044;-60
2023/09/16 10:44:51;;;;;;;5.32;3.60;;;;;;;-145.18;100.00;46965.13;5083412;28;20073;-61
2023/09/16 10:47:17;;;;;;;8.85;4.93;;;;;;;-145.18;64.08;46963.19;5088146;28;20024;-61
2023/09/16 10:49:46;;;;;;;8.68;4.50;;;;;;;-145.18;60.67;46959.25;5089854;28;20020;-61
2023/09/16 10:52:16;;;;;;;6.57;4.03;;;;;;;-145.18;9.79;46953.41;5088146;28;20020;-61
2023/09/16 10:54:48;;;;;;;6.07;3.97;;;;;;;-145.18;4.40;46953.41;5091036;28;20031;-61